Corozal, Corozal Las Brujas Airport (SKCZ)

NameCorozal Las Brujas Airport
CityCorozal
CountryColombia
ICAOSKCZ
IATACZU
Altitude161 m
CoordinatesGoogle Map
Live Air TrafficLiveATC.net
METARSKCZ 141800Z 27007KT 240V310 9999 SCT020 SCT200 34/25 A2980
2019-09-14 18:00:00 Wind: West (270°) 3.6 m/s - Visibility: > 10000 m - Temperature: 34 °C - Dew point: 25 °C - Humidity: 59.4% - Pressure: 1009.14 hPa

Sorry, no flights used the airport in this database.